Time;durP1;ratioP1;P1;durP2;ratioP2;P2;SDS_P1;SDS_P2;PMS_P1;PMS_P2;Temp;Humidity;BMP_temperature;BMP_pressure;BME280_temperature;BME280_humidity;BME280_pressure;Samples;Min_cycle;Max_cycle;Signal;HPM_P1;HPM_P2
2021/05/25 00:00:08;;;;;;;;;;;18.80;37.90;;;;;;5032042;28;74622;-62
2021/05/25 00:02:34;;;;;;;;;;;18.80;37.80;;;;;;5034418;28;75483;-68
2021/05/25 00:04:59;;;;;;;;;;;18.70;38.10;;;;;;5034385;28;74608;-70
2021/05/25 00:07:25;;;;;;;;;;;18.70;38.20;;;;;;5032807;28;78156;-70
2021/05/25 00:09:51;;;;;;;;;;;18.60;38.00;;;;;;5032330;28;75376;-69
2021/05/25 00:12:16;;;;;;;;;;;18.60;38.10;;;;;;5031960;28;77512;-66
2021/05/25 00:14:42;;;;;;;;;;;18.60;38.10;;;;;;5031977;28;74591;-66
2021/05/25 00:17:08;;;;;;;;;;;18.60;37.90;;;;;;5033815;28;75232;-61
2021/05/25 00:19:33;;;;;;;;;;;18.50;37.70;;;;;;5034224;28;74449;-64
2021/05/25 00:21:59;;;;;;;;;;;18.50;38.20;;;;;;5033688;28;75648;-62
2021/05/25 00:24:24;;;;;;;;;;;18.50;38.10;;;;;;5032139;28;77929;-62
2021/05/25 00:26:50;;;;;;;;;;;18.40;38.20;;;;;;5033757;28;75785;-62
2021/05/25 00:29:16;;;;;;;;;;;18.40;37.50;;;;;;5034048;28;75296;-63
2021/05/25 00:31:41;;;;;;;;;;;18.40;37.80;;;;;;5033645;28;74638;-63
2021/05/25 00:34:07;;;;;;;;;;;18.40;38.00;;;;;;5032552;28;75394;-68
2021/05/25 00:36:35;;;;;;;;;;;18.30;37.70;;;;;;5033856;28;75344;-62
2021/05/25 00:39:02;;;;;;;;;;;18.30;38.10;;;;;;5032109;28;76689;-61
2021/05/25 00:41:28;;;;;;;;;;;18.30;38.20;;;;;;5033398;28;75359;-72
2021/05/25 00:43:54;;;;;;;;;;;18.30;38.40;;;;;;5033530;28;75453;-62
2021/05/25 00:46:20;;;;;;;;;;;18.20;38.50;;;;;;5033644;28;74503;-69
2021/05/25 00:48:45;;;;;;;;;;;18.20;38.60;;;;;;5033616;28;75611;-72
2021/05/25 00:51:11;;;;;;;;;;;18.20;38.70;;;;;;5030981;28;78373;-65
2021/05/25 00:53:37;;;;;;;;;;;18.10;39.00;;;;;;5032100;28;75236;-63
2021/05/25 00:56:02;;;;;;;;;;;18.10;39.40;;;;;;5033357;28;75602;-70
2021/05/25 00:58:28;;;;;;;;;;;18.10;39.30;;;;;;5031186;28;75284;-65
2021/05/25 01:00:54;;;;;;;;;;;18.00;39.30;;;;;;5032806;28;74740;-64
2021/05/25 01:03:21;;;;;;;;;;;17.90;39.10;;;;;;5031776;28;77728;-69
2021/05/25 01:05:47;;;;;;;;;;;17.90;39.30;;;;;;5031525;28;75048;-63
2021/05/25 01:08:13;;;;;;;;;;;17.90;39.40;;;;;;5032785;28;75348;-63
2021/05/25 01:10:44;;;;;;;;;;;17.80;39.70;;;;;;5032984;28;75419;-62
2021/05/25 01:13:18;;;;;;;;;;;17.80;40.10;;;;;;5032782;28;75697;-63
2021/05/25 01:15:45;;;;;;;;;;;17.80;40.40;;;;;;5033106;28;75431;-62
2021/05/25 01:18:10;;;;;;;;;;;17.70;40.40;;;;;;5033233;28;74435;-63
2021/05/25 01:20:38;;;;;;;;;;;17.60;40.30;;;;;;5030967;28;76478;-62
2021/05/25 01:23:03;;;;;;;;;;;17.60;40.40;;;;;;5031329;28;76212;-63
2021/05/25 01:25:29;;;;;;;;;;;17.60;40.40;;;;;;5032763;28;75231;-62
2021/05/25 01:27:59;;;;;;;;;;;17.60;40.40;;;;;;5031463;28;76092;-62
2021/05/25 01:30:26;;;;;;;;;;;17.50;39.60;;;;;;5032708;28;75187;-63
2021/05/25 01:32:52;;;;;;;;;;;17.50;39.60;;;;;;5032522;28;74442;-62
2021/05/25 01:35:18;;;;;;;;;;;17.50;39.70;;;;;;5032931;28;75301;-66
2021/05/25 01:37:44;;;;;;;;;;;17.50;39.90;;;;;;5030931;28;78392;-64
2021/05/25 01:40:10;;;;;;;;;;;17.50;40.20;;;;;;5030897;28;77907;-63
2021/05/25 01:42:36;;;;;;;;;;;17.50;40.10;;;;;;5030703;28;75328;-64
2021/05/25 01:45:03;;;;;;;;;;;17.40;40.30;;;;;;5032330;28;75246;-67
2021/05/25 01:47:29;;;;;;;;;;;17.40;40.50;;;;;;5033009;28;74701;-73
2021/05/25 01:50:11;;;;;;;;;;;17.40;40.60;;;;;;5032242;28;75625;-64
2021/05/25 01:53:02;;;;;;;;;;;17.40;40.70;;;;;;5030976;28;75434;-69
2021/05/25 01:55:35;;;;;;;;;;;17.40;40.60;;;;;;5032143;28;75276;-70
2021/05/25 01:58:06;;;;;;;;;;;17.30;41.10;;;;;;5032424;28;74409;-67
2021/05/25 02:00:32;;;;;;;;;;;17.30;40.90;;;;;;5032168;28;74400;-64
2021/05/25 02:02:58;;;;;;;;;;;17.30;41.10;;;;;;5032914;28;74734;-65
2021/05/25 02:05:23;;;;;;;;;;;17.30;41.10;;;;;;5031989;28;75491;-64
2021/05/25 02:07:50;;;;;;;;;;;17.20;41.30;;;;;;5032408;28;75225;-63
2021/05/25 02:10:21;;;;;;;;;;;17.20;41.30;;;;;;5032399;28;74433;-63
2021/05/25 02:12:47;;;;;;;;;;;17.10;41.40;;;;;;5031907;28;75353;-63
2021/05/25 02:15:13;;;;;;;;;;;17.10;41.50;;;;;;5030078;28;76923;-63
2021/05/25 02:17:39;;;;;;;;;;;17.00;41.90;;;;;;5031899;28;75214;-63
2021/05/25 02:20:05;;;;;;;;;;;17.00;42.00;;;;;;5030539;28;74437;-66
2021/05/25 02:22:30;;;;;;;;;;;17.00;42.30;;;;;;5031902;28;75545;-63
2021/05/25 02:24:56;;;;;;;;;;;17.00;42.00;;;;;;5030315;28;74487;-71
2021/05/25 02:27:21;;;;;;;;;;;16.90;42.00;;;;;;5032119;28;75241;-64
2021/05/25 02:29:47;;;;;;;;;;;16.90;42.60;;;;;;5029959;28;75593;-64
2021/05/25 02:32:12;;;;;;;;;;;16.90;42.60;;;;;;5032108;28;75225;-63
2021/05/25 02:34:38;;;;;;;;;;;16.90;42.40;;;;;;5031857;28;75470;-66
2021/05/25 02:37:04;;;;;;;;;;;16.90;42.20;;;;;;5031926;28;75048;-72
2021/05/25 02:39:29;;;;;;;;;;;16.80;42.20;;;;;;5030149;28;75592;-71
2021/05/25 02:41:55;;;;;;;;;;;16.90;42.20;;;;;;5031508;28;74458;-65
2021/05/25 02:44:20;;;;;;;;;;;16.90;42.20;;;;;;5032025;28;74461;-71
2021/05/25 02:46:46;;;;;;;;;;;16.80;42.30;;;;;;5031725;28;75243;-72
2021/05/25 02:49:12;;;;;;;;;;;16.80;41.90;;;;;;5031741;28;75276;-72
2021/05/25 02:51:37;;;;;;;;;;;16.80;41.90;;;;;;5031509;28;75099;-70
2021/05/25 02:54:03;;;;;;;;;;;16.80;41.90;;;;;;5031932;28;75816;-63
2021/05/25 02:56:28;;;;;;;;;;;16.70;41.90;;;;;;5031537;28;74994;-67
2021/05/25 02:58:54;;;;;;;;;;;16.70;42.00;;;;;;5031407;28;75716;-70
2021/05/25 03:01:20;;;;;;;;;;;16.70;42.10;;;;;;5029937;28;77598;-73
2021/05/25 03:03:46;;;;;;;;;;;16.70;41.90;;;;;;5031404;28;75159;-70
2021/05/25 03:06:11;;;;;;;;;;;16.80;41.90;;;;;;5031626;28;75122;-65
2021/05/25 03:08:37;;;;;;;;;;;16.80;42.00;;;;;;5031003;28;75149;-68
2021/05/25 03:11:03;;;;;;;;;;;16.80;42.10;;;;;;5031528;28;75111;-65
2021/05/25 03:13:28;;;;;;;;;;;16.80;42.50;;;;;;5030586;28;77037;-70
2021/05/25 03:15:54;;;;;;;;;;;16.80;42.60;;;;;;5033324;28;75736;-67
2021/05/25 03:18:19;;;;;;;;;;;16.80;43.50;;;;;;5034694;28;75533;-71
2021/05/25 03:20:48;;;;;;;;;;;16.70;44.50;;;;;;5032448;28;77174;-78
2021/05/25 03:23:14;;;;;;;;;;;16.60;43.80;;;;;;5032818;28;76268;-71
2021/05/25 03:25:40;;;;;;;;;;;16.70;44.10;;;;;;5034700;28;75131;-68
2021/05/25 03:28:05;;;;;;;;;;;16.60;44.80;;;;;;5032730;28;78451;-64
2021/05/25 03:30:31;;;;;;;;;;;16.60;44.60;;;;;;5032970;28;76225;-69
2021/05/25 03:32:58;;;;;;;;;;;16.60;44.40;;;;;;5032324;28;77557;-70
2021/05/25 03:35:24;;;;;;;;;;;16.50;45.00;;;;;;5032951;28;74478;-69
2021/05/25 03:37:50;;;;;;;;;;;16.50;45.50;;;;;;5034327;28;75466;-75
2021/05/25 03:40:17;;;;;;;;;;;16.50;45.60;;;;;;5034700;28;75425;-73
2021/05/25 03:42:43;;;;;;;;;;;16.40;46.10;;;;;;5034763;28;74316;-71
2021/05/25 03:45:09;;;;;;;;;;;16.40;46.10;;;;;;5032323;28;75458;-72
2021/05/25 03:47:35;;;;;;;;;;;16.30;46.50;;;;;;5034826;28;74443;-74
2021/05/25 03:50:07;;;;;;;;;;;16.30;46.70;;;;;;5032425;28;74699;-74
2021/05/25 03:52:36;;;;;;;;;;;16.30;47.00;;;;;;5034518;28;74494;-77
2021/05/25 03:55:05;;;;;;;;;;;16.20;47.80;;;;;;5034017;28;75218;-73
2021/05/25 03:59:56;;;;;;;;;;;16.20;47.80;;;;;;5030717;28;74499;-78
2021/05/25 04:02:22;;;;;;;;;;;16.20;48.60;;;;;;5032432;28;76276;-74
2021/05/25 04:04:48;;;;;;;;;;;16.10;48.50;;;;;;5032547;28;75183;-74
2021/05/25 04:07:13;;;;;;;;;;;16.10;48.90;;;;;;5032559;28;77304;-73
2021/05/25 04:09:39;;;;;;;;;;;16.00;48.70;;;;;;5032102;28;76930;-76
2021/05/25 04:12:05;;;;;;;;;;;15.90;49.40;;;;;;5033743;28;75177;-74
2021/05/25 04:14:31;;;;;;;;;;;16.00;48.90;;;;;;5033509;28;75209;-68
2021/05/25 04:16:56;;;;;;;;;;;15.90;48.80;;;;;;5033994;28;75693;-66
2021/05/25 04:19:22;;;;;;;;;;;15.90;48.80;;;;;;5031495;28;77474;-66
2021/05/25 04:21:47;;;;;;;;;;;15.90;48.80;;;;;;5034005;28;75178;-65
2021/05/25 04:24:13;;;;;;;;;;;15.80;49.10;;;;;;5031617;28;76926;-65
2021/05/25 04:26:39;;;;;;;;;;;15.80;49.60;;;;;;5033568;28;75722;-71
2021/05/25 04:29:05;;;;;;;;;;;15.90;49.20;;;;;;5031942;28;77996;-70
2021/05/25 04:31:30;;;;;;;;;;;15.80;49.30;;;;;;5034398;28;74446;-65
2021/05/25 04:33:56;;;;;;;;;;;15.80;49.60;;;;;;5033812;28;74908;-69
2021/05/25 04:36:21;;;;;;;;;;;15.80;49.50;;;;;;5031494;28;77708;-74
2021/05/25 04:38:47;;;;;;;;;;;15.80;49.90;;;;;;5033742;28;75142;-69
2021/05/25 04:41:13;;;;;;;;;;;15.70;49.70;;;;;;5033547;28;74665;-65
2021/05/25 04:43:38;;;;;;;;;;;15.60;49.70;;;;;;5031950;28;75232;-66
2021/05/25 04:46:04;;;;;;;;;;;15.60;50.10;;;;;;5033410;28;75656;-68
2021/05/25 04:48:30;;;;;;;;;;;15.50;50.20;;;;;;5033240;28;75719;-64
2021/05/25 04:50:55;;;;;;;;;;;15.50;50.50;;;;;;5033532;28;74400;-67
2021/05/25 04:53:21;;;;;;;;;;;15.40;49.90;;;;;;5031454;28;75148;-67
2021/05/25 04:55:47;;;;;;;;;;;15.50;50.40;;;;;;5031770;28;75351;-67
2021/05/25 04:58:12;;;;;;;;;;;15.40;50.20;;;;;;5033067;28;75092;-72
2021/05/25 05:00:38;;;;;;;;;;;15.40;50.20;;;;;;5031257;28;75793;-68
2021/05/25 05:03:04;;;;;;;;;;;15.40;50.20;;;;;;5031644;28;74769;-70
2021/05/25 05:05:29;;;;;;;;;;;15.40;50.10;;;;;;5033042;28;75162;-71
2021/05/25 05:07:55;;;;;;;;;;;15.40;50.30;;;;;;5033125;28;75406;-67
2021/05/25 05:10:21;;;;;;;;;;;15.40;50.20;;;;;;5031005;28;77618;-67
2021/05/25 05:12:46;;;;;;;;;;;15.40;50.60;;;;;;5032902;28;74509;-71
2021/05/25 05:15:15;;;;;;;;;;;15.40;50.50;;;;;;5032921;28;75112;-66
2021/05/25 05:17:42;;;;;;;;;;;15.40;50.30;;;;;;5033176;28;75050;-65
2021/05/25 05:20:09;;;;;;;;;;;15.30;50.40;;;;;;5030950;28;76111;-67
2021/05/25 05:22:35;;;;;;;;;;;15.30;50.60;;;;;;5032297;28;75295;-67
2021/05/25 05:25:01;;;;;;;;;;;15.30;50.80;;;;;;5032762;28;75622;-66
2021/05/25 05:27:27;;;;;;;;;;;15.20;50.30;;;;;;5032816;28;75086;-64
2021/05/25 05:29:52;;;;;;;;;;;15.20;50.80;;;;;;5030442;28;76525;-65
2021/05/25 05:32:18;;;;;;;;;;;15.20;51.00;;;;;;5032833;28;75089;-66
2021/05/25 05:34:44;;;;;;;;;;;15.20;51.10;;;;;;5032615;28;75067;-67
2021/05/25 05:37:09;;;;;;;;;;;15.20;51.10;;;;;;5032442;28;75628;-69
2021/05/25 05:39:35;;;;;;;;;;;15.20;50.90;;;;;;5032831;27;75921;-71
2021/05/25 05:42:01;;;;;;;;;;;15.20;51.10;;;;;;5047795;28;76375;-71
2021/05/25 05:44:27;;;;;;;;;;;15.30;50.80;;;;;;5049719;27;75108;-69
2021/05/25 05:46:52;;;;;;;;;;;15.30;50.90;;;;;;5048407;28;74771;-72
2021/05/25 05:49:18;;;;;;;;;;;15.30;51.20;;;;;;5052337;27;74634;-73
2021/05/25 05:51:44;;;;;;;;;;;15.30;51.10;;;;;;5052641;28;75034;-72
2021/05/25 05:54:11;;;;;;;;;;;15.30;50.90;;;;;;5052648;27;75206;-72
2021/05/25 05:56:37;;;;;;;;;;;15.40;50.90;;;;;;5050719;28;75943;-75
2021/05/25 05:59:03;;;;;;;;;;;15.40;50.70;;;;;;5052461;28;75485;-73
2021/05/25 06:01:28;;;;;;;;;;;15.50;50.80;;;;;;5050846;28;76072;-72
2021/05/25 06:03:54;;;;;;;;;;;15.60;50.70;;;;;;5051231;28;77516;-70
2021/05/25 06:06:19;;;;;;;;;;;15.50;50.70;;;;;;5050808;28;77546;-72
2021/05/25 06:08:45;;;;;;;;;;;15.60;50.60;;;;;;5050411;28;76865;-74
2021/05/25 06:11:11;;;;;;;;;;;15.60;50.30;;;;;;5050662;28;75316;-69
2021/05/25 06:13:37;;;;;;;;;;;15.70;50.10;;;;;;5050293;28;76624;-70
2021/05/25 06:16:03;;;;;;;;;;;15.80;50.50;;;;;;5052488;28;74467;-72
2021/05/25 06:18:29;;;;;;;;;;;15.80;50.10;;;;;;5050159;28;75376;-71
2021/05/25 06:20:55;;;;;;;;;;;15.80;49.70;;;;;;5049144;28;75380;-72
2021/05/25 06:23:21;;;;;;;;;;;15.80;49.80;;;;;;5046776;28;75323;-72
2021/05/25 06:25:47;;;;;;;;;;;15.70;50.40;;;;;;5047557;28;76959;-77
2021/05/25 06:28:13;;;;;;;;;;;15.70;50.30;;;;;;5049507;28;75214;-70
2021/05/25 06:30:39;;;;;;;;;;;15.70;50.10;;;;;;5051126;27;75178;-72
2021/05/25 06:33:05;;;;;;;;;;;15.70;50.30;;;;;;5051269;27;75781;-72
2021/05/25 06:35:33;;;;;;;;;;;15.70;50.40;;;;;;5050398;28;75048;-71
2021/05/25 06:37:58;;;;;;;;;;;15.70;50.30;;;;;;5049784;28;78362;-72
2021/05/25 06:40:24;;;;;;;;;;;15.80;50.10;;;;;;5050131;28;75937;-72
2021/05/25 06:42:50;;;;;;;;;;;15.80;50.00;;;;;;5050588;28;77522;-72
2021/05/25 06:45:16;;;;;;;;;;;15.80;50.00;;;;;;5049971;28;77592;-71
2021/05/25 06:47:42;;;;;;;;;;;15.60;50.20;;;;;;5052037;28;74671;-68
2021/05/25 06:50:08;;;;;;;;;;;15.60;50.40;;;;;;5055635;28;75660;-72
2021/05/25 06:52:34;;;;;;;;;;;15.50;50.40;;;;;;5055456;28;75417;-69
2021/05/25 06:55:01;;;;;;;;;;;15.50;50.40;;;;;;5055544;28;75362;-68
2021/05/25 06:57:27;;;;;;;;;;;15.60;50.50;;;;;;5053900;28;78472;-68
2021/05/25 06:59:53;;;;;;;;;;;15.70;50.00;;;;;;5053530;28;76323;-70
2021/05/25 07:02:20;;;;;;;;;;;15.80;50.00;;;;;;5055288;28;75292;-75
2021/05/25 07:04:46;;;;;;;;;;;15.90;50.00;;;;;;5053453;28;75408;-78
2021/05/25 07:07:12;;;;;;;;;;;16.00;49.50;;;;;;5054921;28;75187;-79
2021/05/25 07:09:37;;;;;;;;;;;16.20;49.40;;;;;;5053465;28;76805;-80
2021/05/25 07:12:03;;;;;;;;;;;16.40;49.00;;;;;;5053754;28;74667;-72
2021/05/25 07:14:29;;;;;;;;;;;16.50;48.70;;;;;;5051115;28;76818;-70
2021/05/25 07:16:55;;;;;;;;;;;16.60;48.40;;;;;;5051927;28;76558;-68
2021/05/25 07:19:20;;;;;;;;;;;16.70;48.10;;;;;;5052849;28;77400;-71
2021/05/25 07:21:46;;;;;;;;;;;16.80;48.10;;;;;;5052793;28;77560;-75
2021/05/25 07:24:12;;;;;;;;;;;16.90;47.70;;;;;;5053483;28;76391;-78
2021/05/25 07:26:37;;;;;;;;;;;17.00;47.30;;;;;;5053285;28;78227;-72
2021/05/25 07:29:03;;;;;;;;;;;17.10;47.20;;;;;;5053688;27;74838;-73
2021/05/25 07:31:29;;;;;;;;;;;17.10;47.00;;;;;;5053077;28;77102;-73
2021/05/25 07:33:55;;;;;;;;;;;17.10;47.10;;;;;;5052687;28;75109;-74
2021/05/25 07:36:20;;;;;;;;;;;17.20;47.00;;;;;;5053173;28;75276;-77
2021/05/25 07:38:47;;;;;;;;;;;17.40;46.70;;;;;;5053712;28;75224;-72
2021/05/25 07:41:12;;;;;;;;;;;17.40;46.60;;;;;;5053665;28;75815;-72
2021/05/25 07:43:38;;;;;;;;;;;17.60;46.40;;;;;;5054663;28;75288;-73
2021/05/25 07:46:04;;;;;;;;;;;17.70;46.30;;;;;;5053389;28;74615;-72
2021/05/25 07:48:31;;;;;;;;;;;17.80;45.90;;;;;;5053616;28;75074;-69
2021/05/25 07:50:56;;;;;;;;;;;17.80;45.50;;;;;;5052477;27;77543;-66
2021/05/25 07:53:22;;;;;;;;;;;17.80;45.80;;;;;;5052739;28;77121;-77
2021/05/25 07:55:49;;;;;;;;;;;17.90;45.70;;;;;;5052348;28;77220;-66
2021/05/25 07:58:15;;;;;;;;;;;17.90;45.60;;;;;;5053956;28;74901;-76
2021/05/25 08:00:41;;;;;;;;;;;17.90;45.20;;;;;;5053862;27;75263;-69
2021/05/25 08:03:06;;;;;;;;;;;17.80;45.40;;;;;;5053557;28;74603;-65
2021/05/25 08:05:32;;;;;;;;;;;17.80;45.60;;;;;;5052713;28;78479;-69
2021/05/25 08:08:02;;;;;;;;;;;17.80;45.50;;;;;;5053434;28;74881;-66
2021/05/25 08:10:28;;;;;;;;;;;17.90;45.50;;;;;;5052174;28;77241;-69
2021/05/25 08:12:53;;;;;;;;;;;17.90;45.40;;;;;;5053716;28;74489;-74
2021/05/25 08:15:19;;;;;;;;;;;18.00;45.20;;;;;;5053198;28;75127;-71
2021/05/25 08:17:51;;;;;;;;;;;18.00;45.20;;;;;;5051657;28;74649;-73
2021/05/25 08:20:18;;;;;;;;;;;18.10;45.20;;;;;;5052146;28;74646;-76
2021/05/25 08:22:45;;;;;;;;;;;18.20;45.20;;;;;;5052051;28;75491;-74
2021/05/25 08:25:12;;;;;;;;;;;18.30;44.60;;;;;;5053638;28;75264;-71
2021/05/25 08:27:38;;;;;;;;;;;18.30;44.60;;;;;;5051643;28;77180;-71
2021/05/25 08:30:07;;;;;;;;;;;18.40;44.60;;;;;;5053356;28;75081;-70
2021/05/25 08:32:32;;;;;;;;;;;18.40;44.50;;;;;;5051688;28;75142;-70
2021/05/25 08:34:58;;;;;;;;;;;18.50;44.40;;;;;;5053514;28;74435;-69
2021/05/25 08:37:24;;;;;;;;;;;18.50;44.20;;;;;;5053320;28;75195;-67
2021/05/25 08:39:49;;;;;;;;;;;18.70;44.20;;;;;;5051276;28;76160;-70
2021/05/25 08:42:15;;;;;;;;;;;18.90;43.80;;;;;;5053225;28;75864;-73
2021/05/25 08:44:41;;;;;;;;;;;19.00;43.70;;;;;;5051674;28;75429;-67
2021/05/25 08:47:07;;;;;;;;;;;19.10;43.00;;;;;;5051526;28;74741;-67
2021/05/25 08:49:36;;;;;;;;;;;19.10;43.20;;;;;;5051409;28;76351;-67
2021/05/25 08:52:06;;;;;;;;;;;19.30;42.90;;;;;;5053549;28;74504;-66
2021/05/25 08:54:32;;;;;;;;;;;19.40;42.80;;;;;;5051406;28;78275;-71
2021/05/25 08:56:58;;;;;;;;;;;19.50;42.40;;;;;;5053118;28;75081;-73
2021/05/25 08:59:23;;;;;;;;;;;19.60;42.50;;;;;;5052156;28;74965;-73
2021/05/25 09:01:49;;;;;;;;;;;19.70;42.40;;;;;;5048961;28;76489;-71
2021/05/25 09:04:17;;;;;;;;;;;19.60;42.40;;;;;;5049937;28;76476;-73
2021/05/25 09:06:47;;;;;;;;;;;19.60;41.80;;;;;;5052927;27;75155;-73
2021/05/25 09:09:17;;;;;;;;;;;19.50;42.30;;;;;;5050148;28;75358;-74
2021/05/25 09:12:07;;;;;;;;;;;19.60;42.10;;;;;;5049180;27;75796;-73
2021/05/25 09:14:46;;;;;;;;;;;19.80;42.10;;;;;;5052423;28;74660;-74
2021/05/25 09:17:23;;;;;;;;;;;19.90;41.70;;;;;;5051106;28;77454;-76
2021/05/25 09:19:49;;;;;;;;;;;20.10;41.40;;;;;;5052250;27;75168;-72
2021/05/25 09:22:27;;;;;;;;;;;20.20;41.30;;;;;;5050904;28;78071;-74
2021/05/25 09:24:53;;;;;;;;;;;20.20;41.00;;;;;;5052704;28;74943;-75
2021/05/25 09:27:28;;;;;;;;;;;20.30;40.80;;;;;;5052463;27;75194;-75
2021/05/25 09:30:08;;;;;;;;;;;20.40;40.90;;;;;;5050324;28;77379;-73
2021/05/25 09:32:37;;;;;;;;;;;20.40;40.90;;;;;;5050897;28;76549;-72
2021/05/25 09:35:06;;;;;;;;;;;20.60;40.70;;;;;;5050680;28;77564;-71
2021/05/25 09:37:39;;;;;;;;;;;20.70;40.40;;;;;;5051184;28;74523;-71
2021/05/25 09:40:05;;;;;;;;;;;20.70;39.60;;;;;;5051734;28;75307;-70
2021/05/25 09:42:30;;;;;;;;;;;20.80;40.20;;;;;;5051122;28;77198;-71
2021/05/25 09:45:00;;;;;;;;;;;20.90;39.70;;;;;;5050662;28;78166;-75
2021/05/25 09:47:36;;;;;;;;;;;21.00;39.60;;;;;;5050393;27;76495;-73
2021/05/25 09:50:03;;;;;;;;;;;21.10;39.40;;;;;;5050426;28;77439;-70
2021/05/25 09:52:28;;;;;;;;;;;21.10;38.90;;;;;;5052362;27;75175;-74
2021/05/25 09:55:08;;;;;;;;;;;21.20;39.60;;;;;;5050795;28;77557;-70
2021/05/25 09:57:40;;;;;;;;;;;21.20;39.20;;;;;;5050632;28;77123;-72
2021/05/25 10:00:23;;;;;;;;;;;21.30;39.00;;;;;;5051893;27;75234;-70
2021/05/25 10:03:08;;;;;;;;;;;21.40;39.10;;;;;;5052265;27;75268;-69
2021/05/25 10:05:34;;;;;;;;;;;21.50;39.10;;;;;;5050167;27;75761;-68
2021/05/25 10:08:00;;;;;;;;;;;21.70;38.70;;;;;;5048611;28;76025;-69
2021/05/25 10:10:30;;;;;;;;;;;21.80;38.90;;;;;;5050342;28;77971;-68
2021/05/25 10:12:56;;;;;;;;;;;21.90;38.30;;;;;;5051790;27;77800;-71
2021/05/25 10:15:23;;;;;;;;;;;22.00;37.50;;;;;;5069783;27;77143;-70
2021/05/25 10:18:10;;;;;;;;;;;22.10;37.70;;;;;;5070827;27;77181;-70
2021/05/25 10:20:36;;;;;;;;;;;22.30;36.60;;;;;;5061665;27;75495;-70
2021/05/25 10:23:02;;;;;;;;;;;22.40;36.70;;;;;;5072667;27;75842;-69
2021/05/25 10:25:31;;;;;;;;;;;22.50;36.70;;;;;;5075781;27;75600;-64
2021/05/25 10:27:57;;;;;;;;;;;22.70;36.80;;;;;;5074378;27;76006;-66
2021/05/25 10:30:23;;;;;;;;;;;22.90;36.40;;;;;;5069468;27;74865;-64
2021/05/25 10:32:49;;;;;;;;;;;23.20;36.00;;;;;;5055395;28;74589;-65
2021/05/25 10:35:19;;;;;;;;;;;23.40;35.50;;;;;;5053641;28;77577;-65
2021/05/25 10:38:04;;;;;;;;;;;23.60;35.70;;;;;;5053454;28;77283;-66
2021/05/25 10:40:39;;;;;;;;;;;23.90;34.80;;;;;;5059357;27;74712;-66
2021/05/25 10:43:23;;;;;;;;;;;24.20;34.70;;;;;;5065149;27;76855;-66
2021/05/25 10:45:49;;;;;;;;;;;24.50;34.60;;;;;;5064029;27;75788;-65
2021/05/25 10:48:15;;;;;;;;;;;24.80;33.90;;;;;;5075732;27;75169;-66
2021/05/25 10:50:51;;;;;;;;;;;25.00;33.50;;;;;;5066621;27;76991;-65
2021/05/25 10:53:24;;;;;;;;;;;25.30;33.40;;;;;;5055560;28;75473;-66
2021/05/25 10:55:49;;;;;;;;;;;25.50;32.80;;;;;;5055197;28;75291;-66
2021/05/25 10:58:18;;;;;;;;;;;25.70;33.00;;;;;;5054994;28;75163;-65
2021/05/25 11:00:48;;;;;;;;;;;26.00;32.30;;;;;;5054844;27;75489;-65
2021/05/25 11:03:14;;;;;;;;;;;26.30;32.10;;;;;;5053841;28;77796;-65
2021/05/25 11:05:41;;;;;;;;;;;26.60;31.50;;;;;;5054968;28;75437;-64
2021/05/25 11:08:14;;;;;;;;;;;27.00;31.40;;;;;;5055001;28;74992;-65
2021/05/25 11:10:51;;;;;;;;;;;27.40;30.30;;;;;;5054353;27;75946;-65
2021/05/25 11:13:16;;;;;;;;;;;27.70;30.10;;;;;;5056460;27;76764;-66
2021/05/25 11:16:01;;;;;;;;;;;28.10;29.70;;;;;;5055518;27;75771;-63
2021/05/25 11:18:31;;;;;;;;;;;28.50;29.50;;;;;;5034413;28;75469;-65
2021/05/25 11:21:20;;;;;;;;;;;29.20;28.60;;;;;;5042736;27;74709;-64
2021/05/25 11:23:50;;;;;;;;;;;29.70;27.80;;;;;;5066325;27;75300;-65
2021/05/25 11:26:35;;;;;;;;;;;30.40;27.20;;;;;;5073304;27;78672;-64
2021/05/25 11:29:17;;;;;;;;;;;31.10;26.60;;;;;;5074733;27;75190;-66
2021/05/25 11:31:42;;;;;;;;;;;32.00;25.50;;;;;;5060980;27;77105;-64
2021/05/25 11:34:08;;;;;;;;;;;33.10;24.60;;;;;;5054051;27;75112;-64
2021/05/25 11:36:37;;;;;;;;;;;34.20;23.80;;;;;;5051460;27;74699;-63
2021/05/25 11:39:07;;;;;;;;;;;35.30;22.60;;;;;;5052745;28;76591;-63
2021/05/25 11:41:32;;;;;;;;;;;36.30;22.00;;;;;;5052449;27;75664;-64
2021/05/25 11:44:10;;;;;;;;;;;37.40;21.00;;;;;;5054633;28;75107;-64
2021/05/25 11:46:39;;;;;;;;;;;38.50;19.90;;;;;;5052740;27;78399;-65
2021/05/25 11:49:06;;;;;;;;;;;38.90;19.20;;;;;;5060332;27;76476;-64
2021/05/25 11:51:31;;;;;;;;;;;39.50;19.20;;;;;;5052472;27;78222;-64
2021/05/25 11:54:11;;;;;;;;;;;40.70;18.30;;;;;;5065612;27;76612;-65
2021/05/25 11:56:37;;;;;;;;;;;41.70;17.90;;;;;;5045868;27;75657;-65
2021/05/25 11:59:04;;;;;;;;;;;42.80;17.10;;;;;;5071864;27;78333;-64
2021/05/25 12:01:39;;;;;;;;;;;43.40;16.80;;;;;;5074226;27;75527;-64
2021/05/25 12:04:06;;;;;;;;;;;43.80;16.60;;;;;;5074534;27;75319;-64
2021/05/25 12:06:31;;;;;;;;;;;44.40;16.40;;;;;;5074706;27;75700;-65
2021/05/25 12:09:12;;;;;;;;;;;45.00;16.30;;;;;;5074285;27;75068;-65
2021/05/25 12:11:41;;;;;;;;;;;45.60;16.00;;;;;;5065921;27;75589;-63
2021/05/25 12:14:07;;;;;;;;;;;46.00;16.00;;;;;;5052556;27;75138;-68
2021/05/25 12:16:33;;;;;;;;;;;46.40;15.30;;;;;;5059621;27;76395;-66
2021/05/25 12:18:59;;;;;;;;;;;46.90;15.30;;;;;;5053917;28;75076;-65
2021/05/25 12:21:25;;;;;;;;;;;47.20;15.20;;;;;;5053623;27;76721;-63
2021/05/25 12:23:51;;;;;;;;;;;46.40;14.80;;;;;;5064078;27;75880;-65
2021/05/25 12:26:18;;;;;;;;;;;45.50;14.70;;;;;;5035252;28;78519;-66
2021/05/25 12:28:47;;;;;;;;;;;45.30;15.10;;;;;;5053804;27;75199;-65
2021/05/25 12:31:13;;;;;;;;;;;45.70;15.50;;;;;;5052388;27;75220;-64
2021/05/25 12:33:43;;;;;;;;;;;46.50;15.60;;;;;;5053691;28;75628;-64
2021/05/25 12:36:24;;;;;;;;;;;47.40;14.70;;;;;;5051950;28;79011;-65
2021/05/25 12:38:56;;;;;;;;;;;48.20;14.70;;;;;;5053415;28;75652;-65
2021/05/25 12:41:21;;;;;;;;;;;48.90;14.80;;;;;;5052050;27;75326;-65
2021/05/25 12:43:47;;;;;;;;;;;49.50;14.70;;;;;;5053595;27;75377;-65
2021/05/25 12:46:13;;;;;;;;;;;49.90;12.60;;;;;;5051715;27;77268;-66
2021/05/25 12:48:40;;;;;;;;;;;49.50;14.10;;;;;;5053339;27;75654;-66
2021/05/25 12:51:06;;;;;;;;;;;49.90;14.20;;;;;;5051317;28;78371;-66
2021/05/25 12:53:46;;;;;;;;;;;50.30;14.30;;;;;;5051101;27;77804;-66
2021/05/25 12:56:16;;;;;;;;;;;50.50;13.60;;;;;;5051565;27;77578;-69
2021/05/25 12:58:43;;;;;;;;;;;50.50;13.40;;;;;;5051581;28;77810;-66
2021/05/25 13:01:25;;;;;;;;;;;50.90;13.80;;;;;;5051573;28;75168;-66
2021/05/25 13:03:51;;;;;;;;;;;51.50;13.80;;;;;;5033058;28;75023;-66
2021/05/25 13:08:51;;;;;;;;;;;52.60;13.10;;;;;;5046349;27;76130;-66
2021/05/25 13:11:17;;;;;;;;;;;52.70;12.90;;;;;;5054314;27;75214;-64
2021/05/25 13:13:45;;;;;;;;;;;52.20;13.70;;;;;;5051231;27;77104;-66
2021/05/25 13:16:21;;;;;;;;;;;52.50;13.10;;;;;;5053887;28;74452;-64
2021/05/25 13:18:47;;;;;;;;;;;52.90;13.50;;;;;;5052932;28;75225;-66
2021/05/25 13:21:15;;;;;;;;;;;53.50;13.10;;;;;;5051124;28;76731;-65
2021/05/25 13:23:41;;;;;;;;;;;54.10;13.00;;;;;;5051414;28;74588;-66
2021/05/25 13:28:51;;;;;;;;;;;54.60;13.30;;;;;;5050159;28;75012;-65
2021/05/25 13:31:18;;;;;;;;;;;55.00;12.90;;;;;;5051796;28;75805;-68
2021/05/25 13:33:44;;;;;;;;;;;55.50;12.20;;;;;;5051496;28;75367;-66
2021/05/25 13:36:10;;;;;;;;;;;55.90;12.30;;;;;;5051206;28;74655;-67
2021/05/25 13:38:36;;;;;;;;;;;55.90;11.70;;;;;;5053113;28;74497;-66
2021/05/25 13:41:01;;;;;;;;;;;55.70;12.10;;;;;;5051465;28;76428;-66
2021/05/25 13:43:27;;;;;;;;;;;54.90;10.90;;;;;;5053197;28;75342;-66
2021/05/25 13:45:53;;;;;;;;;;;53.10;12.20;;;;;;5051252;28;75355;-65
2021/05/25 13:48:18;;;;;;;;;;;53.30;12.60;;;;;;5051036;28;74707;-66
2021/05/25 13:50:44;;;;;;;;;;;53.40;12.30;;;;;;5050996;28;77231;-66
2021/05/25 13:53:09;;;;;;;;;;;53.90;12.70;;;;;;5050984;28;74611;-65
2021/05/25 13:55:36;;;;;;;;;;;54.40;12.10;;;;;;5052752;28;75093;-65
2021/05/25 13:58:03;;;;;;;;;;;54.40;12.20;;;;;;5052180;27;75197;-65
2021/05/25 14:00:38;;;;;;;;;;;54.30;12.20;;;;;;5052233;28;75306;-66
2021/05/25 14:03:04;;;;;;;;;;;53.80;11.50;;;;;;5052631;28;75243;-66
2021/05/25 14:05:30;;;;;;;;;;;53.50;12.70;;;;;;5050569;28;76552;-66
2021/05/25 14:07:55;;;;;;;;;;;54.00;12.60;;;;;;5052588;28;75741;-66
2021/05/25 14:10:21;;;;;;;;;;;54.40;12.50;;;;;;5052583;28;75695;-66
2021/05/25 14:12:47;;;;;;;;;;;54.90;12.40;;;;;;5052387;28;74564;-67
2021/05/25 14:15:13;;;;;;;;;;;55.40;12.50;;;;;;5052463;28;74968;-65
2021/05/25 14:17:39;;;;;;;;;;;55.40;11.90;;;;;;5049723;28;77180;-65
2021/05/25 14:20:05;;;;;;;;;;;55.50;12.20;;;;;;5050818;28;75351;-67
2021/05/25 14:22:31;;;;;;;;;;;55.90;11.90;;;;;;5051646;27;75152;-66
2021/05/25 14:24:56;;;;;;;;;;;56.00;12.20;;;;;;5050448;28;75245;-65